Easterwood Field
KCLL : now visible

Airfield :











YOU CAN JOIN US ON...

 
LOGIN :

Register | Disclaimer

   EN    FR    IT 

 









Legend :    VFR   Marginal VFR   IFR   Intensive IFR   Very Intensive IFR
Visi :
Ceiling :
>= 8 km
>= 3000ft
5 to 8 km
1000 to 3000 ft
1500m to 5 km
500 to 1000 ft
800 to 1500m
200 to 500 ft
< 800m
< 200 ft
Symbols :   Thunderstorms  Fog  Heavy snow  Heavy precipitations  Wind > 20 kt






- Airport Elevation : 320 ft
- IATA code : CLL


KCLL - Easterwood Field

CURRENT METAR :
  • 160553Z AUTO 00000KT 10SM CLR 21/18 A3007 RMK AO2 SLP177 T02060178 10261 20206 402890172 53013 $

EXPIRED METARs :
  • 160453Z AUTO 16006KT 10SM SCT024 21/18 A3004 RMK AO2 SLP167 T02110178 $
  • 160353Z AUTO 12006KT 10SM CLR 22/18 A3003 RMK AO2 SLP163 T02170178 $
  • 160318Z AUTO 12009KT 10SM SCT027 SCT036 SCT050 23/18 A3002 RMK AO2 T02280178 $

TAF KCLL
Valid from the 16 at 06:00 until the 17 at 06:00 UTC


160520Z 1606/1706 13007KT P6SM SCT027 BKN045
FM161100 14012KT P6SM VCSH BKN015 BKN035 OVC060
FM161300 15010G16KT P6SM VCTS BKN014 OVC030CB
FM161500 15011KT 5SM -SHRA BR VCTS SCT010 OVC018CB
FM162100 15009KT P6SM VCSH SCT020 OVC100
FM170200 15008KT P6SM SCT010 BKN016
KZHU FIR / North America



MET'MAP, your aeronautical weather chart ! - Copyright ORBIFLY December 2007 - Disclaimer

ORBIFLY MET'MAP TEAM :

Programming & Development : Alexandra Zaïnal
Concept & original design : Baudouin d'Aumeries
Assistance for programming : Marc-Olivier Méhu
Technical & hardware support : Manuel Goepfert

Contact : metmap@orbifly.com




SOURCES & CREDITS :

   NOAA       Earth
Advisory